Time;durP1;ratioP1;P1;durP2;ratioP2;P2;SDS_P1;SDS_P2;PMS_P1;PMS_P2;Temp;Humidity;BMP_temperature;BMP_pressure;BME280_temperature;BME280_humidity;BME280_pressure;Samples;Min_cycle;Max_cycle;Signal;HPM_P1;HPM_P2
2021/06/23 00:01:10;;;;;;;44.77;32.77;;;15.50;99.90;;;;;;5014257;28;20467;-75
2021/06/23 00:03:37;;;;;;;37.70;29.63;;;15.60;99.90;;;;;;5015442;28;20432;-76
2021/06/23 00:06:04;;;;;;;33.47;28.63;;;15.60;99.90;;;;;;5031351;28;20460;-76
2021/06/23 00:08:31;;;;;;;38.47;32.00;;;15.60;99.90;;;;;;5032034;28;20492;-76
2021/06/23 00:10:59;;;;;;;33.57;28.70;;;15.60;99.90;;;;;;5032188;28;20560;-76
2021/06/23 00:13:30;;;;;;;34.40;28.37;;;15.60;99.90;;;;;;5031731;28;20436;-76
2021/06/23 00:15:57;;;;;;;29.30;25.77;;;15.50;99.90;;;;;;5032408;28;20463;-76
2021/06/23 00:18:24;;;;;;;31.10;26.43;;;15.60;99.90;;;;;;5011193;28;21005;-76
2021/06/23 00:20:51;;;;;;;29.47;24.47;;;15.60;99.90;;;;;;4994820;28;20464;-76
2021/06/23 00:23:18;;;;;;;30.90;25.43;;;15.60;99.90;;;;;;5026867;28;20440;-76
2021/06/23 00:25:45;;;;;;;27.67;23.70;;;15.60;99.90;;;;;;5032023;28;20456;-76
2021/06/23 00:28:12;;;;;;;29.40;25.03;;;15.60;99.90;;;;;;5031042;28;20487;-78
2021/06/23 00:30:39;;;;;;;29.53;23.23;;;15.60;99.90;;;;;;5013679;28;20459;-74
2021/06/23 00:33:08;;;;;;;25.23;21.73;;;15.60;99.90;;;;;;5014784;28;20436;-77
2021/06/23 00:35:35;;;;;;;26.23;21.03;;;15.60;99.90;;;;;;5032267;28;20527;-77
2021/06/23 00:38:03;;;;;;;26.20;21.70;;;15.50;99.90;;;;;;5030153;28;20578;-77
2021/06/23 00:40:31;;;;;;;23.77;21.23;;;15.50;99.90;;;;;;5030803;28;20448;-74
2021/06/23 00:42:58;;;;;;;23.87;21.40;;;15.50;99.90;;;;;;5031081;28;20432;-77
2021/06/23 00:45:25;;;;;;;22.50;19.60;;;15.50;99.90;;;;;;5013092;28;20475;-75
2021/06/23 00:47:54;;;;;;;21.80;18.40;;;15.50;99.90;;;;;;5014029;28;20463;-74
2021/06/23 00:50:25;;;;;;;20.90;18.67;;;15.50;99.90;;;;;;5030694;28;20423;-76
2021/06/23 00:53:05;;;;;;;24.03;18.87;;;15.50;99.90;;;;;;5003954;28;20440;-76
2021/06/23 00:55:33;;;;;;;22.67;18.80;;;15.50;99.90;;;;;;5010825;28;20452;-76
2021/06/23 00:58:02;;;;;;;20.40;17.93;;;15.50;99.90;;;;;;5012064;28;20460;-72
2021/06/23 01:00:32;;;;;;;24.97;19.30;;;15.50;99.90;;;;;;4994132;28;20461;-75
2021/06/23 01:03:02;;;;;;;23.63;19.63;;;15.40;99.90;;;;;;5026195;28;20502;-77
2021/06/23 01:05:32;;;;;;;20.47;17.90;;;15.50;99.90;;;;;;5031629;28;20980;-76
2021/06/23 01:08:03;;;;;;;22.13;17.10;;;15.40;99.90;;;;;;5030976;28;20435;-77
2021/06/23 01:10:32;;;;;;;23.63;19.50;;;15.40;99.90;;;;;;5031472;28;20539;-73
2021/06/23 01:13:21;;;;;;;24.90;19.10;;;15.40;99.90;;;;;;5014124;28;20522;-76
2021/06/23 01:15:49;;;;;;;18.23;15.93;;;15.40;99.90;;;;;;5031430;28;20478;-74
2021/06/23 01:18:17;;;;;;;19.93;17.93;;;15.40;99.90;;;;;;5030921;28;20965;-76
2021/06/23 01:20:47;;;;;;;26.80;17.80;;;15.40;99.90;;;;;;5013679;28;20452;-76
2021/06/23 01:23:15;;;;;;;22.63;18.00;;;15.40;99.90;;;;;;5000881;28;20537;-76
2021/06/23 01:25:43;;;;;;;23.30;18.43;;;15.40;99.90;;;;;;5011575;28;20564;-75
2021/06/23 01:28:10;;;;;;;19.03;16.87;;;15.40;99.90;;;;;;5017007;28;20454;-76
2021/06/23 01:30:44;;;;;;;20.57;17.00;;;15.30;99.90;;;;;;4997576;28;20471;-77
2021/06/23 01:33:28;;;;;;;21.53;17.40;;;15.30;99.90;;;;;;5030408;28;20440;-74
2021/06/23 01:35:58;;;;;;;21.63;16.57;;;15.30;99.90;;;;;;5013362;28;20462;-76
2021/06/23 01:38:26;;;;;;;26.37;17.37;;;15.30;99.90;;;;;;5013234;28;20628;-76
2021/06/23 01:40:54;;;;;;;21.30;18.57;;;15.30;99.90;;;;;;5013503;28;20813;-75
2021/06/23 01:43:21;;;;;;;26.97;17.93;;;15.30;99.90;;;;;;5013816;28;20921;-76
2021/06/23 01:45:50;;;;;;;20.37;18.20;;;15.30;99.90;;;;;;5013195;28;20464;-76
2021/06/23 01:48:22;;;;;;;22.13;18.83;;;15.30;99.90;;;;;;5030597;28;20460;-73
2021/06/23 01:50:57;;;;;;;20.63;18.50;;;15.20;99.90;;;;;;5031001;28;20464;-76
2021/06/23 01:53:36;;;;;;;23.97;18.20;;;15.20;99.90;;;;;;5026459;28;20445;-76
2021/06/23 01:56:04;;;;;;;21.57;18.47;;;15.30;99.90;;;;;;4994045;28;20464;-74
2021/06/23 01:58:37;;;;;;;19.03;17.20;;;15.20;99.90;;;;;;5009965;28;20457;-76
2021/06/23 02:01:29;;;;;;;19.70;17.70;;;15.30;99.90;;;;;;5020426;28;20472;-75
2021/06/23 02:03:56;;;;;;;24.03;17.93;;;15.30;99.90;;;;;;5010334;28;20527;-76
2021/06/23 02:06:43;;;;;;;23.80;18.53;;;15.30;99.90;;;;;;5004848;28;20468;-76
2021/06/23 02:09:34;;;;;;;24.93;18.30;;;15.30;99.90;;;;;;5005575;28;20460;-75
2021/06/23 02:12:25;;;;;;;20.33;18.20;;;15.20;99.90;;;;;;5002333;28;20458;-75
2021/06/23 02:15:00;;;;;;;21.33;17.60;;;15.20;99.90;;;;;;5016620;28;20918;-76
2021/06/23 02:17:31;;;;;;;26.00;19.27;;;15.20;99.90;;;;;;5034799;28;20420;-76
2021/06/23 02:20:17;;;;;;;22.77;19.37;;;15.20;99.90;;;;;;5033590;28;20976;-76
2021/06/23 02:22:46;;;;;;;26.97;19.60;;;15.20;99.90;;;;;;5016821;28;20471;-76
2021/06/23 02:25:17;;;;;;;21.70;19.40;;;15.10;99.90;;;;;;5016562;28;20518;-76
2021/06/23 02:28:14;;;;;;;20.87;17.23;;;15.10;99.90;;;;;;5016824;28;20543;-76
2021/06/23 02:30:42;;;;;;;25.33;19.37;;;15.20;99.90;;;;;;5015971;28;20463;-76
2021/06/23 02:33:11;;;;;;;26.43;18.80;;;15.20;99.90;;;;;;5017085;28;20861;-76
2021/06/23 02:35:43;;;;;;;19.60;17.60;;;15.10;99.90;;;;;;5032948;28;20526;-76
2021/06/23 02:38:22;;;;;;;20.70;17.93;;;15.10;99.90;;;;;;5011938;28;20999;-76
2021/06/23 02:40:52;;;;;;;24.00;17.90;;;15.10;99.90;;;;;;5034178;28;20484;-76
2021/06/23 02:43:20;;;;;;;29.13;19.20;;;15.10;99.90;;;;;;5017158;28;20459;-76
2021/06/23 02:45:47;;;;;;;24.83;18.80;;;15.10;99.90;;;;;;5033370;28;20476;-74
2021/06/23 02:48:14;;;;;;;20.13;18.13;;;15.10;99.90;;;;;;5016636;28;20452;-76
2021/06/23 02:51:17;;;;;;;21.10;19.00;;;15.10;99.90;;;;;;5016473;28;20464;-75
2021/06/23 02:53:46;;;;;;;17.97;16.07;;;15.10;99.90;;;;;;5033828;28;20436;-77
2021/06/23 02:56:14;;;;;;;23.30;17.13;;;15.10;99.90;;;;;;5032887;28;20543;-76
2021/06/23 02:58:52;;;;;;;19.70;17.70;;;15.10;99.90;;;;;;5015988;28;20876;-77
2021/06/23 03:01:20;;;;;;;24.07;17.83;;;15.10;99.90;;;;;;5006232;28;20500;-76
2021/06/23 03:03:50;;;;;;;25.67;17.20;;;15.10;99.90;;;;;;5028548;28;20431;-76
2021/06/23 03:06:18;;;;;;;19.03;16.90;;;15.10;99.90;;;;;;5033513;28;21004;-76
2021/06/23 03:08:48;;;;;;;20.20;17.10;;;15.10;99.90;;;;;;5033067;28;20480;-76
2021/06/23 03:11:32;;;;;;;24.70;18.37;;;15.10;99.90;;;;;;5032417;28;20546;-76
2021/06/23 03:14:11;;;;;;;19.00;16.87;;;15.10;99.90;;;;;;5032933;28;20428;-75
2021/06/23 03:16:44;;;;;;;20.77;17.43;;;15.10;99.90;;;;;;5032673;28;20486;-75
2021/06/23 03:19:14;;;;;;;25.73;17.13;;;15.10;99.90;;;;;;5015943;28;20470;-76
2021/06/23 03:21:42;;;;;;;19.97;15.57;;;15.10;99.90;;;;;;5032631;28;20474;-76
2021/06/23 03:24:09;;;;;;;18.37;16.47;;;15.10;99.90;;;;;;5015973;28;20436;-75
2021/06/23 03:26:37;;;;;;;23.23;18.67;;;15.10;99.90;;;;;;5015562;28;20503;-76
2021/06/23 03:29:28;;;;;;;20.67;16.50;;;15.00;99.90;;;;;;5032199;28;20440;-76
2021/06/23 03:31:56;;;;;;;21.53;18.07;;;15.10;99.90;;;;;;5015101;28;20510;-75
2021/06/23 03:34:27;;;;;;;19.47;17.43;;;15.10;99.90;;;;;;5033682;28;20483;-76
2021/06/23 03:36:59;;;;;;;20.67;16.90;;;15.10;99.90;;;;;;5014699;28;20467;-75
2021/06/23 03:39:29;;;;;;;29.97;17.73;;;15.10;99.90;;;;;;5015972;28;21024;-76
2021/06/23 03:42:02;;;;;;;22.53;16.93;;;15.00;99.90;;;;;;5033021;28;20460;-76
2021/06/23 03:44:29;;;;;;;20.67;15.33;;;15.10;99.90;;;;;;5033421;28;20751;-75
2021/06/23 03:46:56;;;;;;;18.93;16.93;;;15.00;99.90;;;;;;5014509;28;20468;-75
2021/06/23 03:49:24;;;;;;;17.10;15.20;;;15.00;99.90;;;;;;5015429;28;20444;-75
2021/06/23 03:51:55;;;;;;;21.37;16.40;;;15.00;99.90;;;;;;4998847;28;20884;-76
2021/06/23 03:54:24;;;;;;;19.83;16.87;;;15.00;99.90;;;;;;5015644;28;20904;-75
2021/06/23 03:56:54;;;;;;;21.03;16.40;;;15.00;99.90;;;;;;5032484;28;20452;-76
2021/06/23 03:59:22;;;;;;;27.40;17.97;;;15.00;99.90;;;;;;5015231;28;20456;-76
2021/06/23 04:01:49;;;;;;;22.10;18.53;;;15.00;99.90;;;;;;5014488;28;20640;-76
2021/06/23 04:04:18;;;;;;;23.70;18.43;;;15.00;99.90;;;;;;5031686;28;20934;-75
2021/06/23 04:06:54;;;;;;;23.90;18.07;;;15.00;99.90;;;;;;5031664;28;20476;-75
2021/06/23 04:09:21;;;;;;;21.43;16.53;;;15.10;99.90;;;;;;5032773;28;20456;-75
2021/06/23 04:12:02;;;;;;;24.13;17.93;;;15.00;99.90;;;;;;5032513;28;20953;-76
2021/06/23 04:14:36;;;;;;;24.00;19.00;;;15.10;99.90;;;;;;5015298;28;20820;-75
2021/06/23 04:17:04;;;;;;;21.00;17.80;;;15.00;99.90;;;;;;4997671;28;20464;-75
2021/06/23 04:19:31;;;;;;;22.07;17.90;;;15.10;99.90;;;;;;5031411;28;20501;-75
2021/06/23 04:22:01;;;;;;;20.33;18.13;;;15.00;99.90;;;;;;4998312;28;20471;-75
2021/06/23 04:24:30;;;;;;;21.80;17.90;;;15.00;99.90;;;;;;5014959;28;20548;-76
2021/06/23 04:26:59;;;;;;;26.43;18.53;;;15.00;99.90;;;;;;5014362;28;20471;-76
2021/06/23 04:29:31;;;;;;;21.07;18.93;;;15.00;99.90;;;;;;4997605;28;20521;-76
2021/06/23 04:31:58;;;;;;;21.10;18.80;;;15.00;99.90;;;;;;5014362;28;20815;-76
2021/06/23 04:34:28;;;;;;;22.00;18.00;;;15.00;99.90;;;;;;5032208;28;20436;-76
2021/06/23 04:37:10;;;;;;;20.33;17.53;;;15.00;99.90;;;;;;5013492;28;20471;-76
2021/06/23 04:39:38;;;;;;;21.77;17.37;;;15.00;99.90;;;;;;5014333;28;20518;-75
2021/06/23 04:42:10;;;;;;;24.00;18.00;;;15.00;99.90;;;;;;5031613;28;20506;-77
2021/06/23 04:44:40;;;;;;;27.20;18.97;;;15.00;99.90;;;;;;5030810;28;20432;-76
2021/06/23 04:47:07;;;;;;;22.67;19.03;;;14.90;99.90;;;;;;4997490;28;20474;-76
2021/06/23 04:49:34;;;;;;;21.57;19.20;;;14.90;99.90;;;;;;5014769;28;20885;-74
2021/06/23 04:52:20;;;;;;;21.10;18.77;;;15.00;99.90;;;;;;5030269;28;20545;-75
2021/06/23 04:54:47;;;;;;;21.87;19.30;;;15.00;99.90;;;;;;5014278;28;20464;-76
2021/06/23 04:57:15;;;;;;;29.40;21.17;;;14.90;99.90;;;;;;5031446;28;21055;-76
2021/06/23 04:59:41;;;;;;;21.17;19.07;;;15.00;99.90;;;;;;5014601;28;21063;-75
2021/06/23 05:02:12;;;;;;;25.87;22.23;;;15.00;99.90;;;;;;5010694;28;20468;-75
2021/06/23 05:04:42;;;;;;;27.17;20.43;;;14.90;99.90;;;;;;5026824;28;20782;-75
2021/06/23 05:07:09;;;;;;;22.77;19.53;;;15.00;99.90;;;;;;5030528;28;20560;-74
2021/06/23 05:09:38;;;;;;;22.97;19.20;;;15.00;99.90;;;;;;5031832;28;20451;-75
2021/06/23 05:12:07;;;;;;;25.17;21.27;;;15.00;99.90;;;;;;5031363;28;20468;-75
2021/06/23 05:14:35;;;;;;;24.30;21.70;;;15.00;99.90;;;;;;5030723;28;20824;-75
2021/06/23 05:17:02;;;;;;;25.47;20.40;;;15.00;99.90;;;;;;5030532;28;20479;-74
2021/06/23 05:19:30;;;;;;;23.43;20.53;;;15.00;99.90;;;;;;5032347;28;21064;-75
2021/06/23 05:22:00;;;;;;;27.33;23.27;;;15.00;99.90;;;;;;5011210;28;20475;-76
2021/06/23 05:24:28;;;;;;;26.50;21.80;;;15.00;99.90;;;;;;5014419;28;20423;-75
2021/06/23 05:26:55;;;;;;;29.73;23.23;;;15.10;99.90;;;;;;5031110;28;20479;-75
2021/06/23 05:29:22;;;;;;;30.87;20.90;;;15.10;99.90;;;;;;5015555;28;20459;-76
2021/06/23 05:31:49;;;;;;;28.03;23.13;;;15.10;99.90;;;;;;5030143;28;20460;-75
2021/06/23 05:34:16;;;;;;;27.80;24.53;;;15.10;99.90;;;;;;5013149;28;20428;-75
2021/06/23 05:36:44;;;;;;;31.73;24.20;;;15.10;99.90;;;;;;5003675;28;20807;-75
2021/06/23 05:39:11;;;;;;;26.53;23.50;;;15.10;99.90;;;;;;5031666;28;20901;-74
2021/06/23 05:41:38;;;;;;;27.43;24.60;;;15.00;99.90;;;;;;5034933;28;20511;-75
2021/06/23 05:44:05;;;;;;;26.30;22.57;;;15.10;99.90;;;;;;5017190;28;20444;-75
2021/06/23 05:46:32;;;;;;;25.83;23.03;;;15.10;99.90;;;;;;5008631;28;20483;-75
2021/06/23 05:48:59;;;;;;;31.70;26.17;;;15.10;99.90;;;;;;5001156;28;20452;-75
2021/06/23 05:51:26;;;;;;;31.60;25.33;;;15.10;99.90;;;;;;5017363;28;20495;-75
2021/06/23 05:53:52;;;;;;;29.70;24.43;;;15.10;99.90;;;;;;4983135;28;20437;-75
2021/06/23 05:56:19;;;;;;;30.70;23.73;;;15.10;99.90;;;;;;5015522;28;20468;-75
2021/06/23 05:58:46;;;;;;;30.70;23.27;;;15.10;99.90;;;;;;5015215;28;20874;-75
2021/06/23 06:01:13;;;;;;;32.10;24.90;;;15.10;99.90;;;;;;5005561;28;20496;-75
2021/06/23 06:03:40;;;;;;;27.77;23.97;;;15.10;99.90;;;;;;5035414;28;20427;-75
2021/06/23 06:06:07;;;;;;;28.00;23.77;;;15.10;99.90;;;;;;5017031;28;21058;-75
2021/06/23 06:08:34;;;;;;;28.20;24.17;;;15.10;99.90;;;;;;5016739;28;20468;-74
2021/06/23 06:11:02;;;;;;;28.60;25.13;;;15.10;99.90;;;;;;5016922;28;20452;-74
2021/06/23 06:13:29;;;;;;;33.40;27.20;;;15.00;99.90;;;;;;5017441;28;20512;-75
2021/06/23 06:15:56;;;;;;;30.03;25.70;;;15.10;99.90;;;;;;5012928;28;20465;-75
2021/06/23 06:18:24;;;;;;;27.57;24.57;;;15.20;99.90;;;;;;5015123;28;20842;-75
2021/06/23 06:20:57;;;;;;;31.10;26.13;;;15.20;99.90;;;;;;5014877;28;21020;-75
2021/06/23 06:23:25;;;;;;;33.03;26.10;;;15.20;99.90;;;;;;5029651;28;20891;-76
2021/06/23 06:25:52;;;;;;;31.97;25.67;;;15.30;99.90;;;;;;5034271;28;20830;-75
2021/06/23 06:28:20;;;;;;;32.77;26.53;;;15.30;99.90;;;;;;5017160;28;20432;-75
2021/06/23 06:30:48;;;;;;;31.80;25.57;;;15.20;99.90;;;;;;5033388;28;20474;-75
2021/06/23 06:33:15;;;;;;;34.33;26.23;;;15.30;99.90;;;;;;5028542;28;20451;-75
2021/06/23 06:35:42;;;;;;;40.23;26.67;;;15.20;99.90;;;;;;5016636;28;20436;-75
2021/06/23 06:38:12;;;;;;;32.30;26.27;;;15.30;99.90;;;;;;5022474;28;20513;-75
2021/06/23 06:40:42;;;;;;;34.97;26.77;;;15.20;99.90;;;;;;5033337;28;20456;-74
2021/06/23 06:43:12;;;;;;;33.00;25.90;;;15.20;99.90;;;;;;5015407;28;20486;-75
2021/06/23 06:45:39;;;;;;;31.47;24.27;;;15.20;99.90;;;;;;5006482;28;20787;-74
2021/06/23 06:48:07;;;;;;;28.10;24.50;;;15.20;99.90;;;;;;5016164;28;20474;-75
2021/06/23 06:50:34;;;;;;;35.17;26.03;;;15.30;99.90;;;;;;5033435;28;20531;-74
2021/06/23 06:53:05;;;;;;;35.23;26.97;;;15.20;99.90;;;;;;5048077;28;20436;-74
2021/06/23 06:55:32;;;;;;;29.17;25.83;;;15.20;99.90;;;;;;5033551;28;20543;-75
2021/06/23 06:57:59;;;;;;;33.43;27.13;;;15.20;99.90;;;;;;5034095;28;20424;-75
2021/06/23 07:00:26;;;;;;;30.87;25.20;;;15.20;99.90;;;;;;5032738;28;20942;-75
2021/06/23 07:02:54;;;;;;;35.80;25.50;;;15.20;99.90;;;;;;5033179;28;20431;-75
2021/06/23 07:05:22;;;;;;;37.30;28.97;;;15.20;99.90;;;;;;5015929;28;20845;-74
2021/06/23 07:07:50;;;;;;;32.97;25.90;;;15.30;99.90;;;;;;5033166;28;20471;-75
2021/06/23 07:10:17;;;;;;;30.53;25.00;;;15.20;99.90;;;;;;5033538;28;20836;-76
2021/06/23 07:12:44;;;;;;;29.53;25.83;;;15.30;99.90;;;;;;5016637;28;20454;-75
2021/06/23 07:15:11;;;;;;;30.27;24.73;;;15.30;99.90;;;;;;5032141;28;20844;-75
2021/06/23 07:17:38;;;;;;;32.43;27.80;;;15.30;99.90;;;;;;5033077;28;20472;-73
2021/06/23 07:20:07;;;;;;;36.30;26.83;;;15.40;99.90;;;;;;5033528;28;20528;-74
2021/06/23 07:22:34;;;;;;;35.87;28.57;;;15.30;99.90;;;;;;5032101;28;20439;-75
2021/06/23 07:25:01;;;;;;;34.77;28.57;;;15.30;99.90;;;;;;5016064;28;20428;-74
2021/06/23 07:27:28;;;;;;;33.17;27.83;;;15.30;99.90;;;;;;5015215;28;20486;-75
2021/06/23 07:29:55;;;;;;;31.60;28.07;;;15.30;99.90;;;;;;5015995;28;21018;-74
2021/06/23 07:32:31;;;;;;;37.60;28.70;;;15.30;99.90;;;;;;5032357;28;20815;-74
2021/06/23 07:37:44;;;;;;;40.20;31.07;;;15.40;99.90;;;;;;5037405;28;20464;-75
2021/06/23 07:40:12;;;;;;;34.90;29.97;;;15.40;99.90;;;;;;5031763;28;20518;-73
2021/06/23 07:42:46;;;;;;;36.27;27.00;;;15.50;99.90;;;;;;5033516;28;20452;-74
2021/06/23 07:45:13;;;;;;;37.93;27.37;;;15.50;99.90;;;;;;4999063;28;20863;-74
2021/06/23 07:47:41;;;;;;;32.60;27.10;;;15.50;99.90;;;;;;5015059;28;20529;-74
2021/06/23 07:50:13;;;;;;;30.70;26.73;;;15.40;99.90;;;;;;5032544;28;20470;-75
2021/06/23 08:09:03;;;;;;;29.60;26.17;;;15.70;99.90;;;;;;5031906;28;20578;-74
2021/06/23 08:11:34;;;;;;;26.77;22.57;;;15.70;99.90;;;;;;5014661;28;20530;-74
2021/06/23 08:14:03;;;;;;;29.33;25.40;;;15.70;99.90;;;;;;5033145;28;20922;-73
2021/06/23 08:16:32;;;;;;;30.20;25.80;;;15.70;99.90;;;;;;5031851;28;20490;-75
2021/06/23 08:18:59;;;;;;;32.33;26.90;;;15.70;99.90;;;;;;5032461;28;20448;-74
2021/06/23 08:21:26;;;;;;;35.67;27.83;;;15.70;99.90;;;;;;5031536;28;20460;-75
2021/06/23 08:23:53;;;;;;;36.00;27.90;;;15.80;99.90;;;;;;5031995;28;20548;-73
2021/06/23 08:26:20;;;;;;;36.50;27.10;;;15.80;99.90;;;;;;5031705;28;20456;-74
2021/06/23 08:28:47;;;;;;;33.03;27.90;;;15.80;99.90;;;;;;5012776;28;20455;-74
2021/06/23 08:31:14;;;;;;;30.00;26.80;;;15.90;99.90;;;;;;5031329;28;20543;-74
2021/06/23 08:33:41;;;;;;;31.63;25.83;;;15.90;99.90;;;;;;5032594;28;20925;-74
2021/06/23 08:36:09;;;;;;;32.80;26.07;;;16.00;99.90;;;;;;5030828;28;20551;-73
2021/06/23 08:38:36;;;;;;;32.63;25.90;;;16.00;99.90;;;;;;5031409;28;20468;-74
2021/06/23 08:41:04;;;;;;;31.50;26.00;;;16.00;99.90;;;;;;5014028;28;20464;-74
2021/06/23 08:43:31;;;;;;;33.33;27.00;;;16.00;99.90;;;;;;5032368;28;20428;-74
2021/06/23 08:46:02;;;;;;;33.97;25.53;;;16.00;99.90;;;;;;5013598;28;20475;-74
2021/06/23 08:48:31;;;;;;;29.50;26.23;;;16.00;99.90;;;;;;5031755;28;20491;-74
2021/06/23 08:51:06;;;;;;;36.47;28.40;;;16.00;99.90;;;;;;5014081;28;20577;-74
2021/06/23 08:53:34;;;;;;;37.63;27.47;;;16.00;99.90;;;;;;5030468;28;20478;-74
2021/06/23 08:56:05;;;;;;;39.30;28.43;;;16.00;99.90;;;;;;5031675;28;20460;-73
2021/06/23 08:58:33;;;;;;;34.70;27.43;;;16.10;99.90;;;;;;5030469;28;20490;-74
2021/06/23 09:01:00;;;;;;;33.00;28.10;;;16.10;99.90;;;;;;5013241;28;20471;-74
2021/06/23 09:03:27;;;;;;;38.23;28.13;;;16.10;99.90;;;;;;5012711;28;20425;-74
2021/06/23 09:05:57;;;;;;;34.60;26.80;;;16.10;99.90;;;;;;5010557;28;20503;-74
2021/06/23 09:08:36;;;;;;;37.20;28.23;;;16.10;99.90;;;;;;5013070;28;20566;-74
2021/06/23 09:11:20;;;;;;;36.33;25.90;;;16.10;99.90;;;;;;5031270;28;21051;-74
2021/06/23 09:13:47;;;;;;;37.00;27.00;;;16.00;99.90;;;;;;5031683;28;20451;-74
2021/06/23 09:16:14;;;;;;;30.93;24.20;;;16.10;99.90;;;;;;5029151;28;20464;-74
2021/06/23 09:18:43;;;;;;;29.67;26.57;;;16.10;99.90;;;;;;5013730;28;20444;-74
2021/06/23 09:21:18;;;;;;;38.40;28.97;;;16.10;99.90;;;;;;5031434;28;20466;-73
2021/06/23 09:23:54;;;;;;;35.30;28.50;;;16.20;99.90;;;;;;5013897;28;20435;-74
2021/06/23 09:26:35;;;;;;;34.97;28.23;;;16.20;99.90;;;;;;5030109;28;20877;-73
2021/06/23 09:29:12;;;;;;;44.53;29.93;;;16.20;99.90;;;;;;5020716;28;20469;-74
2021/06/23 09:32:02;;;;;;;39.63;30.20;;;16.20;99.90;;;;;;5012528;28;20888;-74
2021/06/23 09:34:45;;;;;;;36.90;28.80;;;16.20;99.90;;;;;;5014196;28;20441;-74
2021/06/23 09:37:34;;;;;;;38.03;29.37;;;16.30;99.90;;;;;;4998213;28;20481;-74
2021/06/23 09:40:15;;;;;;;33.30;28.43;;;16.30;99.90;;;;;;4994140;28;20984;-74
2021/06/23 09:42:46;;;;;;;42.20;29.53;;;16.30;99.90;;;;;;5011934;28;20506;-74
2021/06/23 09:45:16;;;;;;;36.47;28.40;;;16.30;99.90;;;;;;4993289;28;20448;-74
2021/06/23 09:47:45;;;;;;;37.17;28.83;;;16.30;99.90;;;;;;5044992;28;20459;-74
2021/06/23 09:50:26;;;;;;;40.77;28.50;;;16.40;99.90;;;;;;5030910;28;20456;-74
2021/06/23 09:53:01;;;;;;;41.60;30.93;;;16.40;99.90;;;;;;5013427;28;20942;-74
2021/06/23 09:55:37;;;;;;;43.27;30.03;;;16.40;99.90;;;;;;5013652;28;21040;-75
2021/06/23 09:58:16;;;;;;;49.00;32.27;;;16.40;99.90;;;;;;5013303;28;20452;-75
2021/06/23 10:00:57;;;;;;;42.53;32.77;;;16.50;99.90;;;;;;5030862;28;20570;-74
2021/06/23 10:03:29;;;;;;;37.93;30.13;;;16.60;99.90;;;;;;5028753;28;20475;-73
2021/06/23 10:05:57;;;;;;;42.30;32.20;;;16.50;99.90;;;;;;5030887;28;20472;-74
2021/06/23 10:08:26;;;;;;;38.43;30.50;;;16.60;99.90;;;;;;5030185;28;20558;-73
2021/06/23 10:10:53;;;;;;;53.90;32.47;;;16.60;99.90;;;;;;5030884;28;20530;-73
2021/06/23 10:13:21;;;;;;;37.33;30.93;;;16.60;99.90;;;;;;5031178;28;20443;-74
2021/06/23 10:15:49;;;;;;;39.43;30.40;;;16.60;99.90;;;;;;5012101;28;20562;-74
2021/06/23 10:18:20;;;;;;;47.30;32.77;;;16.60;99.90;;;;;;5030968;28;20543;-74
2021/06/23 10:20:54;;;;;;;37.93;31.13;;;16.50;99.90;;;;;;5013152;28;20452;-75
2021/06/23 10:23:21;;;;;;;39.90;31.07;;;16.50;99.90;;;;;;5029601;28;20495;-74
2021/06/23 10:25:50;;;;;;;42.10;31.63;;;16.50;99.90;;;;;;5018775;28;20468;-73
2021/06/23 10:28:19;;;;;;;37.33;30.23;;;16.60;99.90;;;;;;5044315;28;20989;-75
2021/06/23 10:30:47;;;;;;;37.90;29.70;;;16.50;99.90;;;;;;5013230;28;20455;-72
2021/06/23 10:33:15;;;;;;;37.47;30.90;;;16.60;99.90;;;;;;5016097;28;20440;-74
2021/06/23 10:35:42;;;;;;;38.50;29.97;;;16.60;99.90;;;;;;5033402;28;20459;-73
2021/06/23 10:38:15;;;;;;;41.97;31.77;;;16.60;99.90;;;;;;4987302;28;20484;-74
2021/06/23 10:40:42;;;;;;;37.87;31.30;;;16.70;99.90;;;;;;5024162;28;20834;-74
2021/06/23 10:43:14;;;;;;;40.23;29.83;;;16.80;99.90;;;;;;5016103;28;20439;-74
2021/06/23 10:45:43;;;;;;;41.07;30.90;;;16.80;99.90;;;;;;5025340;28;20476;-73
2021/06/23 10:48:11;;;;;;;41.97;30.50;;;16.80;99.90;;;;;;5015976;28;20469;-74
2021/06/23 10:50:38;;;;;;;41.90;30.13;;;16.80;99.90;;;;;;5089534;22;20776;-78
2021/06/23 10:53:27;;;;;;;43.70;30.57;;;16.90;99.90;;;;;;5002732;28;20485;-78
2021/06/23 10:55:54;;;;;;;41.03;30.33;;;16.90;99.90;;;;;;4994413;28;20500;-78
2021/06/23 10:58:27;;;;;;;44.03;31.23;;;17.00;99.90;;;;;;4977600;28;20454;-78
2021/06/23 11:01:09;;;;;;;41.53;32.17;;;16.90;99.90;;;;;;4993537;28;20475;-78
2021/06/23 11:03:59;;;;;;;41.90;30.80;;;16.90;99.90;;;;;;4994951;28;20931;-77
2021/06/23 11:06:46;;;;;;;43.47;32.17;;;16.90;99.90;;;;;;4994598;28;20856;-78
2021/06/23 11:09:22;;;;;;;45.57;31.03;;;16.90;99.90;;;;;;4975196;28;20470;-78
2021/06/23 11:11:50;;;;;;;43.33;31.70;;;16.90;99.90;;;;;;4974898;28;20829;-78
2021/06/23 11:14:18;;;;;;;48.23;32.00;;;16.90;99.90;;;;;;4975394;28;20517;-78
2021/06/23 11:16:45;;;;;;;49.60;33.80;;;17.00;99.90;;;;;;4980367;28;20523;-77
2021/06/23 11:19:13;;;;;;;38.03;32.07;;;16.90;99.90;;;;;;4994448;28;20449;-78
2021/06/23 11:21:42;;;;;;;43.93;32.57;;;17.00;99.90;;;;;;4993133;28;20469;-78
2021/06/23 11:24:16;;;;;;;45.00;32.20;;;17.00;99.90;;;;;;4975195;28;20517;-78
2021/06/23 11:26:43;;;;;;;47.17;35.07;;;17.00;99.90;;;;;;4975080;28;20462;-78
2021/06/23 11:29:10;;;;;;;46.40;34.77;;;17.00;99.90;;;;;;4975107;28;20869;-77
2021/06/23 11:31:49;;;;;;;42.83;31.30;;;17.00;99.90;;;;;;4974633;28;20467;-78
2021/06/23 11:34:43;;;;;;;46.90;33.87;;;17.00;99.90;;;;;;4975400;28;20431;-78
2021/06/23 11:37:15;;;;;;;48.10;33.23;;;17.10;99.90;;;;;;4974407;28;20489;-78
2021/06/23 11:39:43;;;;;;;50.10;33.57;;;17.10;99.90;;;;;;4974898;28;20533;-78
2021/06/23 11:42:11;;;;;;;52.90;36.10;;;17.20;99.90;;;;;;4974168;28;20816;-78
2021/06/23 11:44:39;;;;;;;47.93;35.77;;;17.10;99.90;;;;;;4974900;28;20423;-78
2021/06/23 11:47:07;;;;;;;50.33;36.80;;;17.10;99.90;;;;;;4993580;28;20871;-78
2021/06/23 11:49:35;;;;;;;51.93;38.50;;;17.10;99.90;;;;;;4994064;28;20509;-78
2021/06/23 11:52:04;;;;;;;45.67;35.70;;;17.20;99.90;;;;;;4995779;28;20501;-78
2021/06/23 11:54:37;;;;;;;53.27;36.47;;;17.30;99.90;;;;;;4995948;28;20476;-78
2021/06/23 11:57:05;;;;;;;55.77;36.23;;;17.40;99.90;;;;;;4994933;28;20545;-78
2021/06/23 11:59:32;;;;;;;59.53;38.47;;;17.40;99.90;;;;;;4994853;28;20847;-78
2021/06/23 12:01:58;;;;;;;50.93;37.13;;;17.50;99.90;;;;;;4971161;28;21008;-78
2021/06/23 12:04:28;;;;;;;54.90;39.00;;;17.40;99.90;;;;;;4973362;28;20988;-78
2021/06/23 12:06:57;;;;;;;48.70;36.27;;;17.60;99.90;;;;;;4975290;28;20466;-78
2021/06/23 12:09:24;;;;;;;55.53;37.90;;;17.60;99.90;;;;;;4976716;28;20481;-78
2021/06/23 12:11:51;;;;;;;53.97;41.80;;;17.60;99.90;;;;;;4993294;28;20496;-78
2021/06/23 12:14:18;;;;;;;50.93;40.27;;;17.70;99.90;;;;;;4993959;28;20824;-78
2021/06/23 12:16:44;;;;;;;49.47;38.70;;;17.70;99.90;;;;;;4976086;28;20860;-78
2021/06/23 12:19:12;;;;;;;55.13;38.90;;;17.70;99.90;;;;;;4993929;28;20512;-78
2021/06/23 12:21:39;;;;;;;52.77;38.67;;;17.70;99.90;;;;;;4987527;28;20548;-78
2021/06/23 12:24:06;;;;;;;51.73;38.37;;;17.70;99.90;;;;;;4995815;28;20879;-78
2021/06/23 12:26:33;;;;;;;50.47;38.03;;;17.70;99.90;;;;;;5012654;28;20475;-78
2021/06/23 12:29:00;;;;;;;51.00;38.10;;;17.80;99.90;;;;;;5013372;28;20568;-78
2021/06/23 12:31:27;;;;;;;49.53;38.30;;;17.80;99.90;;;;;;4994249;28;20532;-78
2021/06/23 12:33:54;;;;;;;50.37;37.00;;;17.90;99.90;;;;;;4995732;28;20437;-78
2021/06/23 12:36:26;;;;;;;48.87;34.90;;;17.80;99.90;;;;;;5012804;28;20472;-78
2021/06/23 12:38:53;;;;;;;41.17;31.07;;;17.80;99.90;;;;;;5012041;28;20808;-78
2021/06/23 12:41:20;;;;;;;41.80;29.97;;;17.80;99.90;;;;;;5012295;28;20626;-78
2021/06/23 12:43:47;;;;;;;48.73;32.23;;;17.80;99.90;;;;;;5013487;28;20424;-78
2021/06/23 12:46:14;;;;;;;35.60;27.40;;;17.90;99.90;;;;;;5011126;28;20464;-78
2021/06/23 12:48:41;;;;;;;33.83;27.63;;;17.90;99.90;;;;;;4994324;28;20477;-78
2021/06/23 12:51:08;;;;;;;39.23;28.30;;;17.90;99.90;;;;;;4992537;28;20469;-78
2021/06/23 12:53:35;;;;;;;40.03;25.93;;;17.90;99.90;;;;;;5012466;28;20451;-78
2021/06/23 12:56:03;;;;;;;31.17;25.83;;;18.00;99.90;;;;;;5013940;28;20463;-78
2021/06/23 12:58:29;;;;;;;41.23;24.07;;;18.10;99.90;;;;;;5014440;28;20450;-78
2021/06/23 13:00:56;;;;;;;27.37;23.40;;;18.30;99.90;;;;;;5031069;28;20457;-78
2021/06/23 13:03:23;;;;;;;37.23;25.37;;;18.30;99.90;;;;;;5012892;28;20460;-78